Time;durP1;ratioP1;P1;durP2;ratioP2;P2;SDS_P1;SDS_P2;PMS_P1;PMS_P2;Temp;Humidity;BMP_temperature;BMP_pressure;BME280_temperature;BME280_humidity;BME280_pressure;Samples;Min_cycle;Max_cycle;Signal;HPM_P1;HPM_P2
2021/08/05 00:02:05;;;;;;;72.60;49.33;;;16.20;99.90;;;;;;6305239;22;19999;-62
2021/08/05 00:04:31;;;;;;;77.20;49.50;;;16.10;99.90;;;;;;6305319;22;20007;-63
2021/08/05 00:06:56;;;;;;;71.88;46.72;;;16.10;99.90;;;;;;6304678;22;20435;-62
2021/08/05 00:09:22;;;;;;;74.35;50.28;;;16.10;99.90;;;;;;6305404;22;20070;-62
2021/08/05 00:11:47;;;;;;;72.95;50.15;;;16.10;99.90;;;;;;6305143;22;20026;-62
2021/08/05 00:14:13;;;;;;;75.30;51.05;;;16.10;99.90;;;;;;6305115;22;20080;-62
2021/08/05 00:16:40;;;;;;;71.57;51.25;;;16.10;99.90;;;;;;6304876;22;20034;-62
2021/08/05 00:19:06;;;;;;;73.95;50.95;;;16.10;99.90;;;;;;6304769;22;19999;-62
2021/08/05 00:21:32;;;;;;;67.18;46.58;;;16.10;99.90;;;;;;6305316;22;20007;-62
2021/08/05 00:23:57;;;;;;;66.35;47.20;;;16.10;99.90;;;;;;6304934;22;20002;-61
2021/08/05 00:26:23;;;;;;;74.32;50.80;;;16.10;99.90;;;;;;6304757;22;20009;-61
2021/08/05 00:28:49;;;;;;;69.57;47.78;;;16.10;99.90;;;;;;6305154;22;20377;-61
2021/08/05 00:31:14;;;;;;;71.07;50.40;;;16.20;99.90;;;;;;6305229;22;20031;-61
2021/08/05 00:33:40;;;;;;;74.85;49.78;;;16.20;99.90;;;;;;6277832;22;20004;-61
2021/08/05 00:36:06;;;;;;;73.90;50.42;;;16.20;99.90;;;;;;6304400;22;20004;-61
2021/08/05 00:38:32;;;;;;;75.57;53.30;;;16.20;99.90;;;;;;6305510;22;20006;-61
2021/08/05 00:40:57;;;;;;;75.28;49.38;;;16.20;99.90;;;;;;6304605;22;19999;-60
2021/08/05 00:43:23;;;;;;;75.30;51.45;;;16.10;99.90;;;;;;6305068;22;20068;-61
2021/08/05 00:45:49;;;;;;;79.93;53.55;;;16.10;99.90;;;;;;6304644;22;20014;-61
2021/08/05 00:48:14;;;;;;;77.40;51.63;;;16.10;99.90;;;;;;6304716;22;20509;-61
2021/08/05 00:50:41;;;;;;;82.60;52.63;;;16.10;99.90;;;;;;6305925;22;20012;-60
2021/08/05 00:53:07;;;;;;;78.22;53.92;;;16.00;99.90;;;;;;6306711;22;20038;-61
2021/08/05 00:55:33;;;;;;;81.13;54.97;;;16.00;99.90;;;;;;6306484;22;19999;-61
2021/08/05 00:57:59;;;;;;;76.95;50.22;;;16.00;99.90;;;;;;6306935;22;20003;-61
2021/08/05 01:00:25;;;;;;;80.65;53.20;;;16.00;99.90;;;;;;6306859;22;19999;-61
2021/08/05 01:03:03;;;;;;;77.65;52.47;;;15.90;99.90;;;;;;6306842;22;19999;-62
2021/08/05 01:05:36;;;;;;;74.28;51.72;;;15.90;99.90;;;;;;6306383;22;20008;-61
2021/08/05 01:08:13;;;;;;;78.28;52.95;;;15.80;99.90;;;;;;6306663;22;20108;-62
2021/08/05 01:10:48;;;;;;;74.97;53.05;;;15.80;99.90;;;;;;6307135;22;20086;-61
2021/08/05 01:13:19;;;;;;;75.93;53.42;;;15.80;99.90;;;;;;6306510;22;20048;-64
2021/08/05 01:15:46;;;;;;;74.25;52.78;;;15.90;99.90;;;;;;6306706;22;20010;-61
2021/08/05 01:18:17;;;;;;;78.07;51.97;;;15.90;99.90;;;;;;6306667;22;19999;-61
2021/08/05 01:20:45;;;;;;;77.93;52.72;;;15.90;99.90;;;;;;6306942;22;20483;-61
2021/08/05 01:23:34;;;;;;;79.75;53.15;;;15.90;99.90;;;;;;6306302;22;20342;-61
2021/08/05 01:26:12;;;;;;;77.18;53.15;;;15.80;99.90;;;;;;6306097;22;20038;-61
2021/08/05 01:28:41;;;;;;;69.55;50.65;;;15.80;99.90;;;;;;6306721;22;20009;-61
2021/08/05 01:31:07;;;;;;;74.10;50.78;;;15.80;99.90;;;;;;6306364;22;20007;-61
2021/08/05 01:33:35;;;;;;;71.63;50.33;;;15.90;99.90;;;;;;6306972;22;20007;-61
2021/08/05 01:36:02;;;;;;;68.72;49.72;;;15.90;99.90;;;;;;6305967;22;20003;-61
2021/08/05 01:38:30;;;;;;;70.30;48.05;;;16.00;99.90;;;;;;6306366;22;19999;-62
2021/08/05 01:40:56;;;;;;;68.75;50.38;;;16.00;99.90;;;;;;6305863;22;20443;-61
2021/08/05 01:43:22;;;;;;;58.58;44.67;;;16.00;99.90;;;;;;6305516;22;20086;-61
2021/08/05 01:45:48;;;;;;;61.22;46.38;;;16.00;99.90;;;;;;6305688;22;20395;-61
2021/08/05 01:48:16;;;;;;;69.90;48.78;;;16.00;99.90;;;;;;6305535;22;20030;-62
2021/08/05 01:50:43;;;;;;;67.88;49.45;;;16.00;99.90;;;;;;6306561;22;20169;-62
2021/08/05 01:53:09;;;;;;;69.20;50.33;;;16.00;99.90;;;;;;6305505;22;20499;-62
2021/08/05 01:55:34;;;;;;;73.55;51.78;;;16.00;99.90;;;;;;6305564;22;20082;-61
2021/08/05 01:58:00;;;;;;;70.03;49.30;;;15.90;99.90;;;;;;6306284;22;19999;-62
2021/08/05 02:00:25;;;;;;;71.25;51.15;;;15.90;99.90;;;;;;6306472;22;20052;-61
2021/08/05 02:02:55;;;;;;;76.82;52.53;;;15.90;99.90;;;;;;6305282;22;19999;-61
2021/08/05 02:05:45;;;;;;;72.07;50.08;;;15.80;99.90;;;;;;6305080;22;20015;-61
2021/08/05 02:08:14;;;;;;;77.18;52.38;;;15.80;99.90;;;;;;6306002;22;20010;-61
2021/08/05 02:10:48;;;;;;;77.55;54.28;;;15.80;99.90;;;;;;6305994;22;20003;-61
2021/08/05 02:13:28;;;;;;;71.95;49.42;;;15.70;99.90;;;;;;6278273;22;20537;-62
2021/08/05 02:16:03;;;;;;;77.82;54.85;;;15.80;99.90;;;;;;6306529;22;20003;-61
2021/08/05 02:18:32;;;;;;;74.82;52.92;;;15.80;99.90;;;;;;6306826;22;19996;-61
2021/08/05 02:20:58;;;;;;;71.13;50.97;;;15.80;99.90;;;;;;6305646;22;20003;-61
2021/08/05 02:23:25;;;;;;;80.03;52.55;;;15.70;99.90;;;;;;6306039;22;19999;-61
2021/08/05 02:25:53;;;;;;;74.60;53.03;;;15.70;99.90;;;;;;6306038;22;20003;-60
2021/08/05 02:28:21;;;;;;;75.47;53.80;;;15.70;99.90;;;;;;6279424;22;20000;-60
2021/08/05 02:30:49;;;;;;;79.95;53.25;;;15.60;99.90;;;;;;6306041;22;20060;-61
2021/08/05 02:33:15;;;;;;;82.78;53.67;;;15.60;99.90;;;;;;6305374;22;20041;-61
2021/08/05 02:35:43;;;;;;;76.07;54.03;;;15.60;99.90;;;;;;6305659;22;20033;-61
2021/08/05 02:38:09;;;;;;;83.88;57.50;;;15.50;99.90;;;;;;6305607;22;20000;-61
2021/08/05 02:40:36;;;;;;;82.05;54.97;;;15.50;99.90;;;;;;6306026;22;20009;-60
2021/08/05 02:43:05;;;;;;;82.72;58.05;;;15.50;99.90;;;;;;6305819;22;19999;-63
2021/08/05 02:45:32;;;;;;;85.68;56.55;;;15.40;99.90;;;;;;6305430;22;20296;-61
2021/08/05 02:47:59;;;;;;;83.32;56.88;;;15.40;99.90;;;;;;6305235;22;20007;-63
2021/08/05 02:50:26;;;;;;;82.05;55.67;;;15.40;99.90;;;;;;6304569;22;20011;-63
2021/08/05 02:52:52;;;;;;;90.03;58.10;;;15.40;99.90;;;;;;6305171;22;20335;-63
2021/08/05 02:55:18;;;;;;;82.90;54.63;;;15.40;99.90;;;;;;6305217;22;20007;-62
2021/08/05 02:57:45;;;;;;;87.47;57.35;;;15.40;99.90;;;;;;6305565;22;20070;-63
2021/08/05 03:00:11;;;;;;;86.45;56.30;;;15.40;99.90;;;;;;6305716;22;20045;-62
2021/08/05 03:02:37;;;;;;;79.72;55.22;;;15.40;99.90;;;;;;6305287;22;20003;-61
2021/08/05 03:05:07;;;;;;;82.32;56.28;;;15.40;99.90;;;;;;6306318;22;20431;-63
2021/08/05 03:07:32;;;;;;;83.25;55.53;;;15.40;99.90;;;;;;6305385;22;20003;-61
2021/08/05 03:09:58;;;;;;;85.18;57.22;;;15.40;99.90;;;;;;6305638;22;19995;-62
2021/08/05 03:12:23;;;;;;;81.50;55.25;;;15.40;99.90;;;;;;6305402;22;20003;-63
2021/08/05 03:14:49;;;;;;;87.43;55.03;;;15.50;99.90;;;;;;6305210;22;19999;-63
2021/08/05 03:17:15;;;;;;;79.65;53.50;;;15.50;99.90;;;;;;6305507;22;20007;-63
2021/08/05 03:19:40;;;;;;;78.78;52.00;;;15.50;99.90;;;;;;6305370;22;20462;-63
2021/08/05 03:22:06;;;;;;;72.60;51.67;;;15.60;99.90;;;;;;6304878;22;19995;-63
2021/08/05 03:24:31;;;;;;;75.55;50.53;;;15.60;99.90;;;;;;6305836;22;20000;-62
2021/08/05 03:26:57;;;;;;;80.10;52.92;;;15.60;99.90;;;;;;6305265;22;20432;-62
2021/08/05 03:29:23;;;;;;;75.35;49.83;;;15.50;99.90;;;;;;6304014;22;20011;-62
2021/08/05 03:31:48;;;;;;;82.93;49.83;;;15.50;99.90;;;;;;6304926;22;20120;-62
2021/08/05 03:34:14;;;;;;;86.28;52.92;;;15.50;99.90;;;;;;6304796;22;20030;-62
2021/08/05 03:36:40;;;;;;;82.03;51.88;;;15.50;99.90;;;;;;6304980;22;20003;-61
2021/08/05 03:39:05;;;;;;;77.97;52.15;;;15.50;99.90;;;;;;6305679;22;20030;-62
2021/08/05 03:41:31;;;;;;;73.13;50.10;;;15.50;99.90;;;;;;6305201;22;19996;-62
2021/08/05 03:43:56;;;;;;;77.05;50.20;;;15.50;99.90;;;;;;6304931;22;20048;-62
2021/08/05 03:46:22;;;;;;;75.60;50.40;;;15.50;99.90;;;;;;6304555;22;20362;-62
2021/08/05 03:48:48;;;;;;;80.68;50.10;;;15.40;99.90;;;;;;6305024;22;20003;-62
2021/08/05 03:51:13;;;;;;;74.10;48.78;;;15.50;99.90;;;;;;6304721;22;20222;-62
2021/08/05 03:53:39;;;;;;;73.70;49.58;;;15.40;99.90;;;;;;6305054;22;20070;-61
2021/08/05 03:56:04;;;;;;;77.68;50.40;;;15.40;99.90;;;;;;6305048;22;20007;-63
2021/08/05 03:58:30;;;;;;;73.60;48.63;;;15.40;99.90;;;;;;6303985;22;20002;-62
2021/08/05 04:00:55;;;;;;;75.10;50.03;;;15.40;99.90;;;;;;6304797;22;20030;-62
2021/08/05 04:03:21;;;;;;;72.47;48.05;;;15.50;99.90;;;;;;6303202;22;20022;-62
2021/08/05 04:05:46;;;;;;;70.60;49.17;;;15.50;99.90;;;;;;6303141;22;20036;-60
2021/08/05 04:08:12;;;;;;;69.78;48.03;;;15.50;99.90;;;;;;6303313;22;20034;-60
2021/08/05 04:10:38;;;;;;;75.35;47.80;;;15.50;99.90;;;;;;6303276;22;20082;-63
2021/08/05 04:13:03;;;;;;;66.55;46.60;;;15.50;99.90;;;;;;6303062;22;19999;-62
2021/08/05 04:15:29;;;;;;;77.32;48.33;;;15.50;99.90;;;;;;6302910;22;20473;-61
2021/08/05 04:17:55;;;;;;;70.07;46.10;;;15.50;99.90;;;;;;6303031;22;20086;-62
2021/08/05 04:20:21;;;;;;;72.00;46.28;;;15.50;99.90;;;;;;6303016;22;20070;-59
2021/08/05 04:22:48;;;;;;;67.63;44.20;;;15.50;99.90;;;;;;6303057;22;20010;-63
2021/08/05 04:25:13;;;;;;;67.68;44.17;;;15.50;99.90;;;;;;6303235;22;20000;-58
2021/08/05 04:27:40;;;;;;;69.38;43.80;;;15.50;99.90;;;;;;6303250;22;20377;-61
2021/08/05 04:30:10;;;;;;;62.08;43.97;;;15.50;99.90;;;;;;6303728;22;20004;-62
2021/08/05 04:32:37;;;;;;;61.95;41.65;;;15.50;99.90;;;;;;6302352;22;20010;-63
2021/08/05 04:35:05;;;;;;;64.63;42.15;;;15.50;99.90;;;;;;6303699;22;20034;-60
2021/08/05 04:37:30;;;;;;;63.03;40.63;;;15.50;99.90;;;;;;6303118;22;20011;-63
2021/08/05 04:39:56;;;;;;;65.68;41.63;;;15.60;99.90;;;;;;6303860;22;20007;-62
2021/08/05 04:42:21;;;;;;;58.63;41.15;;;15.60;99.90;;;;;;6302654;22;20003;-62
2021/08/05 04:44:47;;;;;;;56.33;39.65;;;15.60;99.90;;;;;;6302581;22;20000;-63
2021/08/05 04:47:12;;;;;;;61.67;39.25;;;15.60;99.90;;;;;;6302428;22;20393;-62
2021/08/05 04:49:38;;;;;;;58.75;39.03;;;15.60;99.90;;;;;;6302953;22;20003;-63
2021/08/05 04:52:06;;;;;;;57.10;37.63;;;15.70;99.90;;;;;;6303020;22;20316;-63
2021/08/05 04:54:32;;;;;;;58.45;38.97;;;15.70;99.90;;;;;;6303024;22;20387;-63
2021/08/05 04:56:57;;;;;;;52.92;37.70;;;15.70;99.90;;;;;;6302694;22;20006;-63
2021/08/05 04:59:23;;;;;;;53.78;36.28;;;15.70;99.90;;;;;;6302692;22;19995;-62
2021/08/05 05:01:48;;;;;;;56.65;35.88;;;15.70;99.90;;;;;;6302158;22;20000;-63
2021/08/05 05:04:14;;;;;;;46.83;32.65;;;15.70;99.90;;;;;;6303348;22;20014;-63
2021/08/05 05:06:40;;;;;;;45.33;31.67;;;15.80;99.90;;;;;;6302221;22;20018;-63
2021/08/05 05:09:05;;;;;;;47.58;33.72;;;15.90;99.90;;;;;;6302831;22;20466;-62
2021/08/05 05:11:31;;;;;;;45.13;32.70;;;15.90;99.90;;;;;;6302825;22;20250;-64
2021/08/05 05:13:57;;;;;;;38.10;29.85;;;15.90;99.90;;;;;;6303149;22;20000;-63
2021/08/05 05:16:23;;;;;;;46.50;32.53;;;16.00;99.90;;;;;;6303013;22;20062;-65
2021/08/05 05:18:49;;;;;;;45.85;31.63;;;16.00;99.90;;;;;;6303035;22;20057;-63
2021/08/05 05:21:14;;;;;;;43.53;31.30;;;16.00;99.90;;;;;;6307277;22;20312;-59
2021/08/05 05:23:40;;;;;;;45.65;31.10;;;16.00;99.90;;;;;;6306975;22;20471;-59
2021/08/05 05:26:05;;;;;;;42.50;31.35;;;16.10;99.90;;;;;;6279539;22;20014;-56
2021/08/05 05:28:31;;;;;;;42.13;32.00;;;16.10;99.90;;;;;;6306518;22;20004;-56
2021/08/05 05:30:59;;;;;;;42.88;32.55;;;16.10;99.90;;;;;;6307613;22;19999;-57
2021/08/05 05:33:24;;;;;;;42.90;31.38;;;16.10;99.90;;;;;;6307228;22;20011;-55
2021/08/05 05:35:50;;;;;;;40.50;30.58;;;16.10;99.90;;;;;;6307061;22;20007;-56
2021/08/05 05:38:16;;;;;;;42.95;30.17;;;16.20;99.90;;;;;;6309468;22;20011;-57
2021/08/05 05:40:42;;;;;;;43.58;31.42;;;16.20;99.90;;;;;;6304961;22;20003;-59
2021/08/05 05:43:09;;;;;;;49.00;32.50;;;16.20;99.90;;;;;;6307262;22;20055;-56
2021/08/05 05:45:35;;;;;;;43.70;31.17;;;16.20;99.90;;;;;;6308460;22;20355;-57
2021/08/05 05:48:01;;;;;;;36.95;28.85;;;16.30;99.90;;;;;;6309715;22;20007;-57
2021/08/05 05:50:29;;;;;;;42.50;30.35;;;16.40;99.90;;;;;;6308741;22;20015;-54
2021/08/05 05:52:56;;;;;;;39.38;26.95;;;16.50;99.90;;;;;;6309393;22;19999;-56
2021/08/05 05:55:23;;;;;;;40.17;28.10;;;16.60;99.90;;;;;;6309703;22;20011;-58
2021/08/05 05:57:48;;;;;;;34.45;27.95;;;16.70;99.90;;;;;;6309356;22;20009;-53
2021/08/05 06:00:15;;;;;;;34.78;26.35;;;16.70;99.90;;;;;;6309324;22;20023;-53
2021/08/05 06:02:40;;;;;;;40.72;29.00;;;16.80;99.90;;;;;;6308935;22;19999;-55
2021/08/05 06:05:07;;;;;;;36.60;28.33;;;16.80;99.90;;;;;;6308314;22;20339;-53
2021/08/05 06:07:42;;;;;;;31.45;24.33;;;16.90;99.90;;;;;;6309616;22;20003;-52
2021/08/05 06:10:09;;;;;;;31.30;23.77;;;17.00;99.90;;;;;;6308753;22;20006;-53
2021/08/05 06:12:34;;;;;;;32.60;25.55;;;17.10;99.90;;;;;;6308373;22;20030;-52
2021/08/05 06:15:00;;;;;;;34.70;24.77;;;17.10;99.90;;;;;;6309486;22;20335;-52
2021/08/05 06:17:25;;;;;;;30.63;23.95;;;17.10;99.90;;;;;;6308333;22;20003;-54
2021/08/05 06:19:51;;;;;;;27.50;22.02;;;17.20;99.90;;;;;;6310315;22;20003;-52
2021/08/05 06:22:16;;;;;;;40.25;26.27;;;17.30;99.90;;;;;;6309863;22;20019;-53
2021/08/05 06:24:42;;;;;;;33.13;23.52;;;17.30;99.90;;;;;;6282557;22;20377;-54
2021/08/05 06:27:09;;;;;;;34.63;24.00;;;17.30;99.90;;;;;;6310139;22;20383;-59
2021/08/05 06:29:34;;;;;;;32.45;25.40;;;17.40;99.90;;;;;;6310879;22;20007;-52
2021/08/05 06:32:00;;;;;;;35.25;25.58;;;17.40;99.90;;;;;;6310186;22;20007;-57
2021/08/05 06:34:25;;;;;;;42.83;26.15;;;17.40;99.90;;;;;;6309425;22;20463;-55
2021/08/05 06:36:51;;;;;;;27.45;24.13;;;17.50;99.90;;;;;;6305894;22;20007;-57
2021/08/05 06:39:18;;;;;;;34.35;24.45;;;17.50;99.90;;;;;;6305727;22;20124;-56
2021/08/05 06:41:43;;;;;;;42.90;26.23;;;17.50;99.90;;;;;;6304487;22;19999;-57
2021/08/05 06:44:09;;;;;;;36.55;22.90;;;17.60;99.90;;;;;;6307053;22;20009;-56
2021/08/05 06:46:36;;;;;;;29.00;21.60;;;17.60;99.90;;;;;;6308302;22;20016;-58
2021/08/05 06:49:02;;;;;;;30.05;22.83;;;17.70;99.90;;;;;;6309637;22;20014;-58
2021/08/05 06:51:27;;;;;;;32.15;24.50;;;17.80;99.90;;;;;;6308165;22;20431;-58
2021/08/05 06:53:53;;;;;;;34.88;24.38;;;17.80;99.90;;;;;;6309232;22;20010;-55
2021/08/05 06:56:18;;;;;;;30.13;23.00;;;17.80;99.90;;;;;;6308613;22;20053;-55
2021/08/05 06:58:44;;;;;;;30.02;23.40;;;17.80;99.90;;;;;;6309727;22;20005;-55
2021/08/05 07:01:10;;;;;;;28.55;22.10;;;17.80;99.90;;;;;;6307276;22;20003;-53
2021/08/05 07:03:35;;;;;;;27.60;21.45;;;17.90;99.90;;;;;;6307671;22;20010;-54
2021/08/05 07:06:01;;;;;;;36.63;23.10;;;17.90;99.90;;;;;;6308283;22;20024;-55
2021/08/05 07:08:26;;;;;;;31.90;22.58;;;17.90;99.90;;;;;;6308086;22;20006;-53
2021/08/05 07:10:52;;;;;;;33.65;25.08;;;17.80;99.90;;;;;;6306563;22;20008;-56
2021/08/05 07:13:18;;;;;;;40.00;23.80;;;17.80;99.90;;;;;;6307049;22;20007;-53
2021/08/05 07:15:43;;;;;;;35.00;25.75;;;17.80;99.90;;;;;;6307142;22;20003;-52
2021/08/05 07:18:09;;;;;;;38.08;27.83;;;17.80;99.90;;;;;;6307850;22;20010;-54
2021/08/05 07:20:34;;;;;;;42.03;27.52;;;17.80;99.90;;;;;;6308673;22;20005;-58
2021/08/05 07:23:00;;;;;;;38.50;27.40;;;17.80;99.90;;;;;;6307422;22;20002;-56
2021/08/05 07:25:25;;;;;;;46.25;29.40;;;17.80;99.90;;;;;;6307104;22;20009;-58
2021/08/05 07:27:51;;;;;;;36.05;26.33;;;17.90;99.90;;;;;;6307534;22;19995;-55
2021/08/05 07:30:17;;;;;;;37.08;26.00;;;17.90;99.90;;;;;;6307523;22;20071;-57
2021/08/05 07:32:43;;;;;;;33.80;25.90;;;17.90;99.90;;;;;;6307768;22;20022;-57
2021/08/05 07:35:09;;;;;;;37.38;26.02;;;18.00;99.90;;;;;;6306886;22;20316;-57
2021/08/05 07:37:35;;;;;;;34.97;25.02;;;18.10;99.90;;;;;;6307187;22;20010;-58
2021/08/05 07:40:02;;;;;;;38.25;25.10;;;18.20;99.90;;;;;;6309054;22;20007;-52
2021/08/05 07:42:28;;;;;;;35.40;24.23;;;18.30;99.90;;;;;;6308127;22;19991;-53
2021/08/05 07:44:53;;;;;;;31.48;22.48;;;18.20;99.90;;;;;;6308583;22;20000;-54
2021/08/05 07:47:19;;;;;;;34.85;24.27;;;18.30;99.90;;;;;;6307661;22;20004;-52
2021/08/05 07:49:45;;;;;;;32.80;24.13;;;18.20;99.90;;;;;;6309190;22;20493;-53
2021/08/05 07:52:10;;;;;;;37.28;23.00;;;18.30;99.90;;;;;;6306774;22;20018;-55
2021/08/05 07:54:36;;;;;;;37.40;24.90;;;18.20;99.90;;;;;;6308645;22;20078;-57
2021/08/05 07:57:03;;;;;;;31.27;23.23;;;18.20;99.90;;;;;;6308859;22;20018;-56
2021/08/05 07:59:29;;;;;;;35.00;24.30;;;18.30;99.90;;;;;;6308893;22;20105;-53
2021/08/05 08:01:54;;;;;;;30.90;23.48;;;18.40;99.90;;;;;;6308165;22;20390;-56
2021/08/05 08:04:20;;;;;;;31.05;24.42;;;18.40;99.90;;;;;;6307784;22;20007;-57
2021/08/05 08:06:46;;;;;;;35.85;24.83;;;18.50;99.90;;;;;;6306786;22;20070;-52
2021/08/05 08:09:11;;;;;;;31.88;24.65;;;18.50;99.90;;;;;;6308696;22;20407;-53
2021/08/05 08:11:38;;;;;;;32.20;22.23;;;18.60;99.90;;;;;;6307094;22;20074;-56
2021/08/05 08:14:03;;;;;;;27.50;22.25;;;18.80;99.90;;;;;;6307327;22;20026;-56
2021/08/05 08:16:29;;;;;;;28.88;23.40;;;18.80;99.90;;;;;;6279002;22;20010;-56
2021/08/05 08:18:55;;;;;;;32.72;23.20;;;19.00;99.90;;;;;;6307106;22;20026;-56
2021/08/05 08:21:20;;;;;;;33.25;24.10;;;19.00;99.90;;;;;;6305414;22;20003;-54
2021/08/05 08:23:47;;;;;;;32.90;24.23;;;19.10;99.90;;;;;;6305534;22;19999;-53
2021/08/05 08:26:13;;;;;;;38.70;25.13;;;19.10;99.90;;;;;;6304238;22;20443;-56
2021/08/05 08:28:39;;;;;;;30.08;21.83;;;19.00;99.90;;;;;;6305094;22;20496;-56
2021/08/05 08:31:05;;;;;;;30.27;22.73;;;19.20;99.90;;;;;;6276012;22;20038;-57
2021/08/05 08:33:31;;;;;;;27.33;22.02;;;19.30;99.90;;;;;;6278329;22;20011;-55
2021/08/05 08:35:58;;;;;;;31.92;22.85;;;19.30;99.90;;;;;;6277664;22;20427;-54
2021/08/05 08:38:24;;;;;;;31.23;22.13;;;19.40;99.90;;;;;;6306374;22;20003;-53
2021/08/05 08:40:51;;;;;;;28.60;21.65;;;19.50;99.90;;;;;;6306680;22;20038;-54
2021/08/05 08:43:17;;;;;;;28.20;22.45;;;19.50;99.90;;;;;;6306847;22;20013;-56
2021/08/05 08:45:42;;;;;;;23.10;18.13;;;19.60;99.90;;;;;;6306655;22;20035;-57
2021/08/05 08:48:11;;;;;;;26.20;20.70;;;19.70;99.90;;;;;;6309430;22;20056;-53
2021/08/05 08:50:38;;;;;;;26.45;20.38;;;19.70;99.90;;;;;;6308088;22;20007;-55
2021/08/05 08:53:09;;;;;;;27.70;20.40;;;19.80;99.90;;;;;;6306742;22;20378;-52
2021/08/05 08:55:37;;;;;;;31.13;22.75;;;19.90;99.90;;;;;;6307942;22;20003;-59
2021/08/05 08:58:04;;;;;;;31.55;22.83;;;19.90;99.90;;;;;;6309426;22;20640;-55
2021/08/05 09:00:30;;;;;;;30.00;23.30;;;19.80;99.90;;;;;;6307238;22;20003;-55
2021/08/05 09:02:58;;;;;;;31.40;23.13;;;19.80;99.90;;;;;;6308401;22;20100;-58
2021/08/05 09:05:25;;;;;;;26.13;20.30;;;19.80;99.90;;;;;;6307558;22;20018;-55
2021/08/05 09:07:51;;;;;;;31.45;22.77;;;20.00;99.90;;;;;;6308842;22;20018;-55
2021/08/05 09:10:17;;;;;;;32.08;23.20;;;20.00;99.90;;;;;;6309153;22;19999;-53
2021/08/05 09:12:44;;;;;;;29.45;21.17;;;20.10;99.90;;;;;;6309951;22;20013;-56
2021/08/05 09:15:10;;;;;;;27.00;21.75;;;20.20;99.90;;;;;;6309818;22;20007;-54
2021/08/05 09:17:41;;;;;;;25.75;20.20;;;20.20;99.90;;;;;;6310560;22;20020;-58
2021/08/05 09:20:12;;;;;;;27.95;19.65;;;20.20;99.90;;;;;;6257657;22;20014;-57
2021/08/05 09:22:39;;;;;;;30.40;19.48;;;20.20;99.90;;;;;;6309111;22;19995;-54
2021/08/05 09:25:24;;;;;;;23.35;18.50;;;20.50;99.90;;;;;;6281906;22;20003;-53
2021/08/05 09:27:53;;;;;;;28.20;19.73;;;20.60;99.90;;;;;;6311017;22;20029;-56
2021/08/05 09:30:37;;;;;;;22.92;18.45;;;20.90;99.90;;;;;;6309996;22;20022;-57
2021/08/05 09:33:08;;;;;;;24.55;20.85;;;21.00;99.90;;;;;;6310521;22;20732;-56
2021/08/05 09:35:35;;;;;;;29.38;20.05;;;21.00;99.90;;;;;;6308751;22;20450;-55
2021/08/05 09:38:20;;;;;;;32.03;19.67;;;20.90;99.90;;;;;;6310820;22;20057;-56
2021/08/05 09:40:50;;;;;;;22.73;17.20;;;21.00;99.90;;;;;;6309008;22;19999;-53
2021/08/05 09:43:26;;;;;;;24.85;18.80;;;21.00;99.90;;;;;;6310637;22;20015;-58
2021/08/05 09:45:52;;;;;;;23.60;17.88;;;20.90;99.90;;;;;;6311100;22;20010;-57
2021/08/05 09:48:34;;;;;;;19.05;14.95;;;21.00;99.90;;;;;;6311174;22;20003;-60
2021/08/05 09:51:16;;;;;;;20.75;16.55;;;21.20;99.90;;;;;;6312046;22;20030;-56
2021/08/05 09:53:56;;;;;;;27.45;18.67;;;21.40;99.90;;;;;;6310891;22;20454;-58
2021/08/05 09:56:22;;;;;;;18.73;16.08;;;21.30;99.90;;;;;;6310344;22;20007;-60
2021/08/05 09:58:48;;;;;;;20.95;15.98;;;21.30;99.90;;;;;;6311008;22;19999;-58
2021/08/05 10:01:15;;;;;;;22.25;14.63;;;21.40;99.90;;;;;;6312374;22;20051;-57
2021/08/05 10:03:41;;;;;;;18.73;13.85;;;21.20;99.90;;;;;;6310469;22;20003;-56
2021/08/05 10:06:07;;;;;;;19.10;14.15;;;21.10;99.90;;;;;;6309971;22;20038;-57
2021/08/05 10:08:41;;;;;;;21.38;14.38;;;21.10;99.90;;;;;;6308708;22;20018;-58
2021/08/05 10:11:08;;;;;;;25.40;13.30;;;20.90;99.90;;;;;;6303413;22;20004;-60
2021/08/05 10:13:38;;;;;;;21.67;14.05;;;20.90;99.90;;;;;;6302786;22;20296;-61
2021/08/05 10:16:06;;;;;;;24.48;14.80;;;21.10;99.90;;;;;;6304115;22;20381;-54
2021/08/05 10:18:34;;;;;;;16.50;13.93;;;21.30;99.90;;;;;;6304227;22;19996;-54
2021/08/05 10:21:04;;;;;;;25.38;15.98;;;21.30;99.90;;;;;;6304127;22;20027;-54
2021/08/05 10:23:30;;;;;;;23.63;17.02;;;21.30;99.90;;;;;;6302615;22;19995;-55
2021/08/05 10:25:58;;;;;;;20.38;14.73;;;21.60;99.90;;;;;;6303564;22;20608;-61
2021/08/05 10:28:25;;;;;;;19.85;14.02;;;22.00;99.90;;;;;;6304020;22;20347;-59
2021/08/05 10:30:52;;;;;;;14.32;9.55;;;22.20;99.90;;;;;;6303792;22;20426;-56
2021/08/05 10:33:19;;;;;;;83.22;48.55;;;22.60;99.90;;;;;;6303280;22;20007;-54
2021/08/05 10:35:48;;;;;;;38.28;21.58;;;23.10;99.90;;;;;;6303651;22;20000;-55
2021/08/05 10:38:22;;;;;;;17.27;10.40;;;23.50;99.90;;;;;;6303254;22;20360;-57
2021/08/05 10:40:49;;;;;;;;;;;23.60;99.90;;;;;;6302510;22;20035;-57
2021/08/05 10:43:15;;;;;;;25.58;14.38;;;24.00;99.90;;;;;;6303863;22;19898;-55
2021/08/05 10:45:41;;;;;;;8.60;5.32;;;24.10;99.90;;;;;;6303156;22;20011;-55
2021/08/05 10:48:07;;;;;;;10.07;5.40;;;24.20;99.90;;;;;;6303179;22;20052;-59
2021/08/05 10:50:42;;;;;;;10.07;5.63;;;24.20;99.90;;;;;;6303829;22;20092;-58
2021/08/05 10:53:13;;;;;;;10.50;7.80;;;24.40;99.90;;;;;;6303935;22;20007;-55
2021/08/05 10:55:40;;;;;;;8.82;5.78;;;24.70;99.90;;;;;;6303030;22;20524;-58
2021/08/05 10:58:13;;;;;;;8.70;5.90;;;24.80;99.90;;;;;;6303891;22;20009;-58
2021/08/05 11:01:02;;;;;;;9.10;6.65;;;24.50;99.90;;;;;;6301895;22;20003;-55
2021/08/05 11:03:37;;;;;;;8.60;5.50;;;24.20;99.90;;;;;;6303334;22;20000;-56
2021/08/05 11:06:05;;;;;;;9.98;7.22;;;24.00;99.90;;;;;;6302988;22;20003;-61
2021/08/05 11:08:31;;;;;;;7.20;5.10;;;24.20;99.90;;;;;;6303726;22;20053;-58
2021/08/05 11:11:24;;;;;;;7.05;4.65;;;24.50;99.90;;;;;;6303631;22;20003;-61
2021/08/05 11:13:58;;;;;;;7.28;5.57;;;24.70;99.90;;;;;;6302949;22;20006;-61
2021/08/05 11:16:53;;;;;;;7.15;4.57;;;24.10;99.90;;;;;;6302886;22;20086;-58
2021/08/05 11:19:22;;;;;;;;;;;24.00;99.90;;;;;;6303136;22;20048;-55
2021/08/05 11:21:48;;;;;;;7.15;5.72;;;24.00;99.90;;;;;;6303152;22;19899;-57
2021/08/05 11:24:42;;;;;;;8.82;5.85;;;24.20;99.90;;;;;;6303021;22;19999;-55
2021/08/05 11:27:21;;;;;;;7.28;5.10;;;24.50;99.90;;;;;;6301956;22;20030;-59
2021/08/05 11:29:48;;;;;;;11.40;6.70;;;24.90;99.90;;;;;;6301964;22;20031;-59
2021/08/05 11:32:26;;;;;;;9.20;5.88;;;24.70;99.90;;;;;;6303358;22;20007;-55
2021/08/05 11:34:59;;;;;;;6.65;4.82;;;24.80;99.90;;;;;;6302800;22;20014;-55
2021/08/05 11:37:26;;;;;;;10.20;5.13;;;25.10;99.90;;;;;;6302629;22;20090;-57
2021/08/05 11:39:53;;;;;;;7.32;4.70;;;24.90;99.90;;;;;;6303399;22;20007;-55
2021/08/05 11:42:20;;;;;;;6.07;3.97;;;23.90;99.90;;;;;;6303089;22;19995;-58
2021/08/05 11:45:10;;;;;;;5.55;4.65;;;23.40;99.90;;;;;;6302641;22;19996;-59
2021/08/05 11:47:35;;;;;;;6.28;4.13;;;22.90;99.90;;;;;;6286710;22;19999;-58
2021/08/05 11:50:09;;;;;;;8.18;4.25;;;22.70;99.90;;;;;;6302458;22;20003;-59
2021/08/05 11:52:39;;;;;;;7.80;5.13;;;22.40;99.90;;;;;;6303008;22;20004;-57
2021/08/05 11:55:09;;;;;;;8.05;4.75;;;22.50;99.90;;;;;;6303148;22;20052;-58
2021/08/05 11:57:42;;;;;;;6.65;4.90;;;22.70;99.90;;;;;;6301430;22;20004;-58
2021/08/05 12:00:17;;;;;;;6.35;4.97;;;22.80;99.90;;;;;;6303639;22;20049;-59
2021/08/05 12:02:44;;;;;;;7.22;4.90;;;22.90;99.90;;;;;;6301632;22;20003;-55
2021/08/05 12:05:11;;;;;;;11.80;6.28;;;23.00;99.90;;;;;;6302299;22;20026;-60
2021/08/05 12:07:38;;;;;;;10.20;5.82;;;23.60;99.90;;;;;;6302760;22;20003;-58
2021/08/05 12:10:09;;;;;;;9.77;5.30;;;24.30;99.90;;;;;;6302407;22;20011;-57
2021/08/05 12:12:39;;;;;;;5.05;4.55;;;24.80;99.90;;;;;;6302467;22;20003;-60
2021/08/05 12:15:06;;;;;;;5.82;3.90;;;25.30;99.90;;;;;;6303130;22;20014;-60
2021/08/05 12:17:41;;;;;;;5.28;4.45;;;25.60;99.90;;;;;;6302237;22;19999;-61
2021/08/05 12:20:17;;;;;;;4.65;3.25;;;25.60;99.90;;;;;;6302385;22;20004;-58
2021/08/05 12:22:50;;;;;;;5.88;4.13;;;26.00;99.90;;;;;;6302149;22;19995;-56
2021/08/05 12:25:24;;;;;;;7.93;3.72;;;26.20;99.90;;;;;;6301818;22;20000;-57
2021/08/05 12:28:01;;;;;;;6.45;3.30;;;26.30;99.90;;;;;;6302747;22;20603;-59
2021/08/05 12:30:38;;;;;;;5.53;3.20;;;26.50;99.90;;;;;;6303415;22;20335;-57
2021/08/05 12:33:08;;;;;;;6.70;3.70;;;26.40;99.90;;;;;;6301457;22;20007;-59
2021/08/05 12:35:34;;;;;;;4.57;3.35;;;26.40;99.90;;;;;;6302226;22;20074;-58